createdAt,value
2023-02-14T00:03:27.877Z,102345.69
2023-02-14T00:08:30.281Z,102365.50
2023-02-14T00:13:31.666Z,102371.16
2023-02-14T00:18:51.690Z,102367.81
2023-02-14T00:23:53.045Z,102365.50
2023-02-14T00:28:54.418Z,102372.97
2023-02-14T00:33:55.780Z,102366.78
2023-02-14T00:38:57.364Z,102358.03
2023-02-14T00:43:59.266Z,102358.66
2023-02-14T00:49:00.706Z,102363.28
2023-02-14T00:54:03.252Z,102357.25
2023-02-14T00:59:04.639Z,102366.34
2023-02-14T01:04:07.650Z,102362.31
2023-02-14T01:09:09.188Z,102358.50
2023-02-14T01:14:10.588Z,102353.25
2023-02-14T01:19:11.919Z,102354.97
2023-02-14T01:24:13.343Z,102353.41
2023-02-14T01:29:14.658Z,102349.38
2023-02-14T01:34:16.082Z,102358.34
2023-02-14T01:39:18.495Z,102358.44
2023-02-14T01:44:25.827Z,102358.59
2023-02-14T01:49:31.788Z,102358.84
2023-02-14T01:54:36.117Z,102361.03
2023-02-14T01:59:43.410Z,102365.44
2023-02-14T02:04:46.730Z,102355.94
2023-02-14T02:09:55.711Z,102357.19
2023-02-14T02:14:59.182Z,102358.28
2023-02-14T02:20:37.790Z,102347.88
2023-02-14T02:26:07.985Z,102351.38
2023-02-14T02:31:39.927Z,102341.63
2023-02-14T02:36:51.634Z,102334.13
2023-02-14T02:42:05.953Z,102330.75
2023-02-14T02:47:27.230Z,102331.00
2023-02-14T02:52:58.670Z,102329.84
2023-02-14T02:58:00.431Z,102335.22
2023-02-14T03:03:20.480Z,102334.38
2023-02-14T03:08:21.799Z,102339.75
2023-02-14T03:13:44.427Z,102340.66
2023-02-14T03:18:57.213Z,102342.53
2023-02-14T03:24:09.617Z,102342.06
2023-02-14T03:29:48.507Z,102338.69
2023-02-14T03:35:34.278Z,102321.97
2023-02-14T03:41:02.638Z,102333.56
2023-02-14T03:46:07.271Z,102326.88
2023-02-14T03:51:12.045Z,102338.69
2023-02-14T03:56:26.701Z,102344.91
2023-02-14T04:01:36.564Z,102349.38
2023-02-14T04:06:38.068Z,102353.72
2023-02-14T04:11:39.782Z,102351.13
2023-02-14T04:16:59.885Z,102354.75
2023-02-14T04:22:01.251Z,102367.22
2023-02-14T04:27:11.544Z,102355.75
2023-02-14T04:32:16.283Z,102353.09
2023-02-14T04:37:19.820Z,102355.53
2023-02-14T04:42:21.209Z,102357.94
2023-02-14T04:47:22.620Z,102367.22
2023-02-14T04:52:24.033Z,102359.72
2023-02-14T04:57:25.433Z,102355.69
2023-02-14T05:02:26.891Z,102358.50
2023-02-14T05:07:28.419Z,102363.97
2023-02-14T05:12:29.881Z,102364.16
2023-02-14T05:17:31.312Z,102365.38
2023-02-14T05:22:32.695Z,102366.94
2023-02-14T05:27:34.078Z,102368.44
2023-02-14T05:32:35.470Z,102367.00
2023-02-14T05:37:36.821Z,102375.84
2023-02-14T05:42:38.183Z,102365.53
2023-02-14T05:47:39.685Z,102365.13
2023-02-14T05:52:41.569Z,102363.09
2023-02-14T05:57:42.969Z,102364.56
2023-02-14T06:02:44.395Z,102365.88
2023-02-14T06:07:50.466Z,102365.53
2023-02-14T06:12:53.151Z,102365.28
2023-02-14T06:17:56.178Z,102361.50
2023-02-14T06:22:57.591Z,102363.94
2023-02-14T06:27:59.323Z,102364.00
2023-02-14T06:33:00.760Z,102363.41
2023-02-14T06:38:02.115Z,102371.09
2023-02-14T06:43:03.572Z,102374.34
2023-02-14T06:48:05.082Z,102373.22
2023-02-14T06:53:06.487Z,102363.19
2023-02-14T06:58:07.908Z,102361.81
2023-02-14T07:03:09.708Z,102359.69
2023-02-14T07:08:11.255Z,102354.94
2023-02-14T07:13:12.931Z,102361.56
2023-02-14T07:18:14.269Z,102358.31
2023-02-14T07:23:15.674Z,102356.84
2023-02-14T07:28:17.056Z,102362.34
2023-02-14T07:33:18.529Z,102360.16
2023-02-14T07:38:19.998Z,102354.91
2023-02-14T07:43:21.398Z,102364.94
2023-02-14T07:48:22.828Z,102358.84
2023-02-14T07:53:24.995Z,102355.84
2023-02-14T07:58:26.490Z,102357.09
2023-02-14T08:03:27.839Z,102363.28
2023-02-14T08:08:31.825Z,102357.75
2023-02-14T08:13:33.475Z,102356.75
2023-02-14T08:18:37.917Z,102354.69
2023-02-14T08:23:39.317Z,102355.78
2023-02-14T08:28:40.729Z,102358.09
2023-02-14T08:33:44.156Z,102361.47
2023-02-14T08:38:47.872Z,102360.13
2023-02-14T08:43:50.009Z,102354.66
2023-02-14T08:48:53.291Z,102350.47
2023-02-14T08:53:55.865Z,102352.22
2023-02-14T08:58:57.226Z,102351.63
2023-02-14T09:03:58.815Z,102346.59
2023-02-14T09:09:02.466Z,102355.88
2023-02-14T09:14:04.037Z,102351.97
2023-02-14T09:19:05.662Z,102342.84
2023-02-14T09:24:07.020Z,102340.75
2023-02-14T09:29:08.369Z,102332.06
2023-02-14T09:34:09.727Z,102342.38
2023-02-14T09:39:11.142Z,102333.78
2023-02-14T09:44:29.200Z,102345.59
2023-02-14T09:49:35.976Z,102336.06
2023-02-14T09:54:37.568Z,102345.03
2023-02-14T10:00:13.376Z,102339.53
2023-02-14T10:05:28.898Z,102332.72
2023-02-14T10:11:06.960Z,102335.09
2023-02-14T10:16:27.436Z,102336.16
2023-02-14T10:21:42.992Z,102340.06
2023-02-14T10:26:48.189Z,102345.53
2023-02-14T10:31:55.724Z,102343.03
2023-02-14T11:30:57.490Z,102282.13
2023-02-14T11:35:59.752Z,102268.47
2023-02-14T11:41:02.347Z,102279.13
2023-02-14T11:46:15.034Z,102272.41
2023-02-14T12:01:52.996Z,102254.09
2023-02-14T12:06:54.734Z,102239.97
2023-02-14T12:12:14.787Z,102239.06
2023-02-14T12:17:29.666Z,102232.47
2023-02-14T12:22:37.119Z,102238.66
2023-02-14T12:27:48.974Z,102223.91
2023-02-14T12:32:52.812Z,102221.66
2023-02-14T12:38:03.810Z,102211.81
2023-02-14T12:43:16.099Z,102199.28
2023-02-14T12:48:42.073Z,102199.13
2023-02-14T12:53:58.222Z,102192.19
2023-02-14T12:59:28.385Z,102184.72
2023-02-14T13:04:53.106Z,102179.59
2023-02-14T13:10:04.477Z,102169.09
2023-02-14T13:15:18.977Z,102164.25
2023-02-14T13:20:44.431Z,102157.06
2023-02-14T13:25:52.484Z,102147.72
2023-02-14T13:30:55.758Z,102140.59
2023-02-14T13:36:02.100Z,102136.28
2023-02-14T13:41:05.368Z,102144.47
2023-02-14T13:46:06.872Z,102139.19
2023-02-14T13:51:10.408Z,102132.84
2023-02-14T13:56:11.691Z,102131.59
2023-02-14T14:01:33.285Z,102130.41
2023-02-14T14:07:02.702Z,102124.44
2023-02-14T14:12:04.127Z,102114.50
2023-02-14T14:17:19.508Z,102113.03
2023-02-14T14:22:22.208Z,102119.38
2023-02-14T14:27:44.430Z,102116.88
2023-02-14T14:32:46.460Z,102113.88
2023-02-14T14:37:57.075Z,102095.47
2023-02-14T14:43:32.574Z,102099.09
2023-02-14T14:48:45.395Z,102094.50
2023-02-14T14:53:54.584Z,102089.94
2023-02-14T14:58:56.281Z,102077.94
2023-02-14T15:04:18.253Z,102077.13
2023-02-14T15:09:24.105Z,102074.63
2023-02-14T15:14:28.841Z,102065.88
2023-02-14T15:19:38.826Z,102064.84
2023-02-14T15:24:40.245Z,102049.78
2023-02-14T15:29:41.662Z,102045.75
2023-02-14T15:34:43.422Z,102050.16
2023-02-14T15:39:49.299Z,102054.56
2023-02-14T15:44:50.704Z,102057.09
2023-02-14T15:49:52.062Z,102054.00
2023-02-14T15:54:53.712Z,102054.19
2023-02-14T15:59:55.325Z,102057.09
2023-02-14T16:05:04.117Z,102055.50
2023-02-14T16:10:25.714Z,102055.22
2023-02-14T16:15:32.492Z,102056.81
2023-02-14T16:20:46.841Z,102046.97
2023-02-14T16:25:48.894Z,102053.69
2023-02-14T16:30:55.974Z,102052.81
2023-02-14T16:36:06.209Z,102054.22
2023-02-14T16:41:15.032Z,102059.03
2023-02-14T16:46:20.628Z,102048.38
2023-02-14T16:51:27.183Z,102045.88
2023-02-14T16:56:40.900Z,102055.50
2023-02-14T17:01:42.392Z,102048.56
2023-02-14T17:06:49.415Z,102051.53
2023-02-14T17:11:52.657Z,102048.41
2023-02-14T17:16:57.069Z,102060.34
2023-02-14T17:21:59.812Z,102064.56
2023-02-14T17:27:01.137Z,102076.72
2023-02-14T17:32:02.921Z,102076.22
2023-02-14T17:37:04.297Z,102082.09
2023-02-14T17:42:05.850Z,102088.25
2023-02-14T17:47:07.190Z,102083.63
2023-02-14T17:52:08.508Z,102087.75
2023-02-14T17:57:10.332Z,102084.78
2023-02-14T18:02:11.837Z,102089.53
2023-02-14T18:07:13.169Z,102088.50
2023-02-14T18:12:15.162Z,102088.97
2023-02-14T18:17:16.668Z,102082.56
2023-02-14T18:22:18.048Z,102077.72
2023-02-14T18:27:19.425Z,102077.59
2023-02-14T18:32:20.762Z,102073.03
2023-02-14T18:37:22.191Z,102075.19
2023-02-14T18:42:23.748Z,102079.06
2023-02-14T18:47:25.138Z,102074.28
2023-02-14T18:52:26.540Z,102066.56
2023-02-14T18:57:27.862Z,102066.94
2023-02-14T19:02:29.257Z,102057.50
2023-02-14T19:07:30.978Z,102049.13
2023-02-14T19:12:33.572Z,102037.03
2023-02-14T19:17:35.225Z,102036.44
2023-02-14T19:22:38.361Z,102031.50
2023-02-14T19:27:39.801Z,102041.25
2023-02-14T19:32:41.174Z,102041.78
2023-02-14T19:37:42.496Z,102036.09
2023-02-14T19:42:43.831Z,102035.81
2023-02-14T19:47:47.338Z,102031.00
2023-02-14T19:52:49.163Z,102026.88
2023-02-14T19:57:50.614Z,102022.16
2023-02-14T20:02:52.050Z,102018.94
2023-02-14T20:07:56.405Z,102019.59
2023-02-14T20:12:57.971Z,102010.28
2023-02-14T20:17:59.624Z,102011.16
2023-02-14T20:23:00.989Z,102007.63
2023-02-14T20:28:02.531Z,102011.41
2023-02-14T20:33:04.564Z,102004.75
2023-02-14T20:38:09.523Z,101994.97
2023-02-14T20:43:11.206Z,101991.06
2023-02-14T20:48:12.828Z,101992.56
2023-02-14T20:53:14.277Z,101989.91
2023-02-14T20:58:15.662Z,101980.13
2023-02-14T21:03:17.180Z,101975.22
2023-02-14T21:08:18.612Z,101972.16
2023-02-14T21:13:20.196Z,101973.56
2023-02-14T21:18:21.763Z,101980.72
2023-02-14T21:23:23.131Z,101971.53
2023-02-14T21:28:24.737Z,101966.41
2023-02-14T21:33:26.070Z,101970.69
2023-02-14T21:38:27.793Z,101960.47
2023-02-14T21:43:29.215Z,101955.13
2023-02-14T21:48:54.259Z,101951.06
2023-02-14T21:53:56.546Z,101939.53
2023-02-14T21:58:57.898Z,101947.44
2023-02-14T22:04:00.410Z,101941.78
2023-02-14T22:09:01.769Z,101939.53
2023-02-14T22:14:03.600Z,101921.38
2023-02-14T22:19:07.184Z,101923.50
2023-02-14T22:24:08.539Z,101934.63
2023-02-14T22:29:11.836Z,101933.16
2023-02-14T22:34:17.525Z,101922.16
2023-02-14T22:39:18.879Z,101926.16
2023-02-14T22:44:20.285Z,101923.25
2023-02-14T22:49:21.622Z,101916.22
2023-02-14T22:54:23.135Z,101922.41
2023-02-14T22:59:25.740Z,101914.25
2023-02-14T23:04:29.638Z,101915.22
2023-02-14T23:09:31.018Z,101915.28
2023-02-14T23:14:51.306Z,101924.19
2023-02-14T23:20:11.086Z,101921.81
2023-02-14T23:25:12.461Z,101920.66
2023-02-14T23:30:16.634Z,101921.66
2023-02-14T23:35:18.126Z,101922.91
2023-02-14T23:40:20.313Z,101923.38
2023-02-14T23:45:36.772Z,101922.13
2023-02-14T23:50:38.311Z,101921.38
2023-02-14T23:55:39.615Z,101916.50
